createdAt,value
2023-01-06T00:01:40.981Z,99059.03
2023-01-06T00:04:13.361Z,99055.72
2023-01-06T00:06:45.708Z,99061.19
2023-01-06T00:09:17.999Z,99052.91
2023-01-06T00:11:49.869Z,99056.88
2023-01-06T00:14:22.615Z,99050.34
2023-01-06T00:16:54.891Z,99049.00
2023-01-06T00:19:27.683Z,99040.38
2023-01-06T00:21:59.547Z,99047.59
2023-01-06T00:24:35.415Z,99044.91
2023-01-06T00:27:07.311Z,99043.41
2023-01-06T00:29:40.020Z,99043.44
2023-01-06T00:32:12.393Z,99044.69
2023-01-06T00:34:44.758Z,99043.25
2023-01-06T00:37:17.897Z,99045.97
2023-01-06T00:39:49.752Z,99036.53
2023-01-06T00:42:23.015Z,99037.09
2023-01-06T00:44:54.915Z,99035.94
2023-01-06T00:47:27.632Z,99041.09
2023-01-06T00:50:00.705Z,99044.28
2023-01-06T00:52:34.254Z,99048.81
2023-01-06T00:55:07.845Z,99054.41
2023-01-06T00:57:41.315Z,99057.38
2023-01-06T01:00:13.626Z,99048.03
2023-01-06T01:02:46.486Z,99049.28
2023-01-06T01:05:19.079Z,99041.28
2023-01-06T01:07:51.412Z,99043.19
2023-01-06T01:10:26.607Z,99039.59
2023-01-06T01:12:59.334Z,99038.47
2023-01-06T01:15:31.521Z,99042.38
2023-01-06T01:18:04.756Z,99045.00
2023-01-06T01:20:37.086Z,99049.44
2023-01-06T01:23:08.988Z,99040.13
2023-01-06T01:25:42.093Z,99030.38
2023-01-06T01:28:13.989Z,99035.63
2023-01-06T01:30:47.080Z,99042.19
2023-01-06T01:33:19.413Z,99047.91
2023-01-06T01:35:51.396Z,99036.69
2023-01-06T01:38:27.181Z,99044.44
2023-01-06T01:40:59.089Z,99050.84
2023-01-06T01:43:58.761Z,99044.06
2023-01-06T01:46:40.003Z,99046.19
2023-01-06T01:49:22.445Z,99037.63
2023-01-06T01:51:57.302Z,99040.31
2023-01-06T01:54:33.201Z,99042.13
2023-01-06T01:57:13.449Z,99044.13
2023-01-06T01:59:46.573Z,99045.41
2023-01-06T02:02:21.363Z,99050.09
2023-01-06T02:04:55.748Z,99050.16
2023-01-06T02:07:28.438Z,99057.97
2023-01-06T02:10:23.794Z,99057.06
2023-01-06T02:12:59.072Z,99059.81
2023-01-06T02:15:34.665Z,99053.34
2023-01-06T02:18:42.482Z,99057.09
2023-01-06T02:21:42.084Z,99052.22
2023-01-06T02:24:30.287Z,99054.47
2023-01-06T02:27:33.314Z,99036.19
2023-01-06T02:30:39.053Z,99044.50
2023-01-06T02:33:34.143Z,99035.41
2023-01-06T02:36:12.118Z,99034.69
2023-01-06T02:39:14.268Z,99033.94
2023-01-06T02:42:16.313Z,99029.91
2023-01-06T02:45:30.195Z,99031.19
2023-01-06T02:48:32.763Z,99019.38
2023-01-06T02:51:29.854Z,99020.03
2023-01-06T02:54:43.878Z,99015.47
2023-01-06T02:57:31.684Z,99015.28
2023-01-06T03:00:32.559Z,99009.84
2023-01-06T03:03:11.545Z,99009.50
2023-01-06T03:05:48.332Z,99007.63
2023-01-06T03:08:26.873Z,99007.63
2023-01-06T03:11:01.252Z,99011.38
2023-01-06T03:14:10.723Z,99011.13
2023-01-06T03:16:43.766Z,99010.31
2023-01-06T03:19:16.353Z,99000.56
2023-01-06T03:21:51.986Z,99002.94
2023-01-06T03:24:28.673Z,99004.09
2023-01-06T03:27:01.515Z,99004.78
2023-01-06T03:29:34.951Z,99000.22
2023-01-06T03:32:33.190Z,98997.94
2023-01-06T03:35:28.202Z,99003.31
2023-01-06T03:38:29.483Z,99009.22
2023-01-06T03:41:56.768Z,99009.72
2023-01-06T03:44:54.349Z,99009.03
2023-01-06T03:47:56.310Z,99003.00
2023-01-06T03:50:45.421Z,99009.78
2023-01-06T03:53:49.437Z,99005.56
2023-01-06T03:56:34.194Z,99006.41
2023-01-06T03:59:16.914Z,99008.38
2023-01-06T04:01:51.039Z,99009.69
2023-01-06T04:04:24.746Z,99012.16
2023-01-06T04:06:58.005Z,99009.94
2023-01-06T04:09:30.945Z,99015.59
2023-01-06T04:12:21.704Z,99004.72
2023-01-06T04:14:54.672Z,98999.97
2023-01-06T04:17:26.687Z,99012.44
2023-01-06T04:19:59.468Z,99019.81
2023-01-06T04:22:31.472Z,99016.31
2023-01-06T04:25:05.989Z,99010.09
2023-01-06T04:27:38.715Z,99014.66
2023-01-06T04:30:12.292Z,99006.97
2023-01-06T04:32:44.655Z,99015.16
2023-01-06T04:35:17.912Z,99014.69
2023-01-06T04:37:50.436Z,99013.66
2023-01-06T04:40:22.783Z,99018.88
2023-01-06T04:43:06.457Z,99014.47
2023-01-06T04:45:41.371Z,99010.34
2023-01-06T04:48:14.448Z,99012.88
2023-01-06T04:50:47.151Z,99007.94
2023-01-06T04:53:19.088Z,99010.44
2023-01-06T04:55:51.446Z,99005.56
2023-01-06T04:58:23.350Z,99006.31
2023-01-06T05:01:05.061Z,99005.69
2023-01-06T05:03:38.285Z,99005.69
2023-01-06T05:06:12.234Z,99006.72
2023-01-06T05:08:46.294Z,99012.06
2023-01-06T05:11:22.281Z,99005.03
2023-01-06T05:13:55.117Z,99002.41
2023-01-06T05:16:38.676Z,99004.56
2023-01-06T05:19:11.457Z,99002.06
2023-01-06T05:21:43.776Z,99003.13
2023-01-06T05:24:15.988Z,98996.06
2023-01-06T05:26:47.899Z,98998.88
2023-01-06T05:29:19.823Z,98994.50
2023-01-06T05:31:53.763Z,98997.94
2023-01-06T05:34:25.807Z,98988.94
2023-01-06T05:36:58.701Z,98998.34
2023-01-06T05:39:30.577Z,99000.34
2023-01-06T05:42:03.404Z,99000.66
2023-01-06T05:44:35.745Z,99000.06
2023-01-06T05:47:08.086Z,98995.69
2023-01-06T05:49:40.039Z,99002.34
2023-01-06T05:52:13.214Z,99001.28
2023-01-06T05:54:45.141Z,99000.22
2023-01-06T05:57:17.875Z,98999.00
2023-01-06T05:59:50.375Z,98989.22
2023-01-06T06:02:22.293Z,99000.59
2023-01-06T06:04:55.020Z,98988.22
2023-01-06T06:07:27.314Z,98984.56
2023-01-06T06:10:00.055Z,98983.50
2023-01-06T06:12:33.310Z,98987.81
2023-01-06T06:15:06.602Z,98973.56
2023-01-06T06:17:38.511Z,98978.47
2023-01-06T06:20:11.450Z,98980.88
2023-01-06T06:22:43.763Z,98977.63
2023-01-06T06:25:16.459Z,98982.00
2023-01-06T06:27:49.277Z,98983.13
2023-01-06T06:30:21.603Z,98983.22
2023-01-06T06:32:54.404Z,98989.28
2023-01-06T06:35:26.648Z,99000.44
2023-01-06T06:37:58.969Z,98996.59
2023-01-06T06:40:30.859Z,99007.38
2023-01-06T06:43:03.220Z,98998.06
2023-01-06T06:45:35.128Z,99013.41
2023-01-06T06:48:08.255Z,99020.53
2023-01-06T06:50:40.389Z,99005.56
2023-01-06T06:53:13.095Z,99010.91
2023-01-06T06:55:48.635Z,99010.31
2023-01-06T06:58:23.583Z,99010.84
2023-01-06T07:00:56.001Z,99010.59
2023-01-06T07:03:27.888Z,99016.09
2023-01-06T07:06:00.841Z,99020.19
2023-01-06T07:08:35.687Z,99024.78
2023-01-06T07:11:07.986Z,99030.88
2023-01-06T07:13:40.132Z,99027.16
2023-01-06T07:16:12.735Z,99029.06
2023-01-06T07:18:45.101Z,99031.84
2023-01-06T07:21:18.247Z,99033.94
2023-01-06T07:23:50.123Z,99034.75
2023-01-06T07:26:23.404Z,99037.94
2023-01-06T07:28:55.319Z,99039.59
2023-01-06T07:31:28.157Z,99039.94
2023-01-06T07:34:00.468Z,99046.59
2023-01-06T07:36:33.192Z,99046.78
2023-01-06T07:39:05.288Z,99044.13
2023-01-06T07:41:37.620Z,99045.03
2023-01-06T07:44:17.876Z,99052.97
2023-01-06T07:46:49.956Z,99048.03
2023-01-06T07:49:22.298Z,99060.16
2023-01-06T07:51:54.256Z,99055.28
2023-01-06T07:54:26.668Z,99061.47
2023-01-06T07:56:59.309Z,99062.31
2023-01-06T07:59:32.228Z,99064.69
2023-01-06T08:02:05.132Z,99066.22
2023-01-06T08:04:37.877Z,99069.69
2023-01-06T08:07:10.701Z,99056.59
2023-01-06T08:09:42.812Z,99054.88
2023-01-06T08:12:16.111Z,99060.41
2023-01-06T08:14:47.999Z,99062.31
2023-01-06T08:17:21.164Z,99057.44
2023-01-06T08:19:54.217Z,99058.84
2023-01-06T08:22:27.013Z,99063.28
2023-01-06T08:24:59.958Z,99065.59
2023-01-06T08:27:32.296Z,99068.81
2023-01-06T08:30:06.804Z,99077.78
2023-01-06T08:32:38.706Z,99067.59
2023-01-06T08:35:11.417Z,99077.00
2023-01-06T08:37:43.862Z,99075.75
2023-01-06T08:40:15.820Z,99073.16
2023-01-06T08:42:48.270Z,99077.34
2023-01-06T08:45:20.629Z,99069.59
2023-01-06T08:47:52.508Z,99071.19
2023-01-06T08:50:26.631Z,99077.84
2023-01-06T08:53:00.140Z,99073.44
2023-01-06T08:55:33.709Z,99064.38
2023-01-06T08:58:06.598Z,99075.09
2023-01-06T09:00:42.308Z,99077.34
2023-01-06T09:03:14.197Z,99085.94
2023-01-06T09:05:56.108Z,99095.78
2023-01-06T09:08:29.129Z,99099.38
2023-01-06T09:11:07.646Z,99108.59
2023-01-06T09:13:39.598Z,99106.88
2023-01-06T09:16:13.980Z,99103.06
2023-01-06T09:18:50.608Z,99109.03
2023-01-06T09:21:24.124Z,99108.53
2023-01-06T09:23:56.867Z,99119.22
2023-01-06T09:26:28.822Z,99116.00
2023-01-06T09:29:23.321Z,99118.53
2023-01-06T09:31:55.645Z,99120.63
2023-01-06T09:34:28.028Z,99119.28
2023-01-06T09:37:00.439Z,99127.25
2023-01-06T09:39:32.312Z,99127.28
2023-01-06T09:42:25.794Z,99126.72
2023-01-06T09:45:08.898Z,99131.31
2023-01-06T09:47:49.899Z,99137.84
2023-01-06T09:50:52.002Z,99142.56
2023-01-06T09:53:35.186Z,99151.25
2023-01-06T09:56:14.638Z,99147.88
2023-01-06T09:58:51.375Z,99145.41
2023-01-06T10:01:32.349Z,99146.66
2023-01-06T10:04:04.402Z,99156.59
2023-01-06T10:07:13.615Z,99154.06
2023-01-06T10:10:34.916Z,99152.13
2023-01-06T10:13:39.702Z,99143.41
2023-01-06T10:17:09.307Z,99149.00
2023-01-06T10:20:06.752Z,99143.13
2023-01-06T10:23:06.189Z,99128.00
2023-01-06T10:25:53.372Z,99127.56
2023-01-06T10:28:36.363Z,99127.88
2023-01-06T10:31:17.438Z,99121.28
2023-01-06T10:33:59.041Z,99118.69
2023-01-06T10:36:44.286Z,99111.91
2023-01-06T10:39:21.049Z,99103.34
2023-01-06T10:42:42.009Z,99096.72
2023-01-06T10:45:14.641Z,99088.22
2023-01-06T10:47:47.775Z,99077.09
2023-01-06T10:50:20.226Z,99064.22
2023-01-06T10:52:53.473Z,99055.44
2023-01-06T10:55:25.280Z,99056.16
2023-01-06T10:58:07.927Z,99051.78
2023-01-06T11:01:02.559Z,99045.00
2023-01-06T11:03:36.889Z,99048.22
2023-01-06T11:06:29.026Z,99040.88
2023-01-06T11:09:32.591Z,99050.44
2023-01-06T11:12:14.697Z,99030.16
2023-01-06T11:15:22.361Z,99029.00
2023-01-06T11:17:54.280Z,99024.19
2023-01-06T11:20:26.892Z,99027.63
2023-01-06T11:23:21.474Z,99036.00
2023-01-06T11:26:17.548Z,99036.84
2023-01-06T11:28:55.059Z,99032.25
2023-01-06T11:31:28.247Z,99031.53
2023-01-06T11:34:04.068Z,99023.50
2023-01-06T11:36:45.554Z,99027.25
2023-01-06T11:39:38.877Z,99021.03
2023-01-06T11:42:14.692Z,99013.13
2023-01-06T11:44:47.459Z,99011.25
2023-01-06T11:47:24.998Z,99012.41
2023-01-06T11:50:01.210Z,99006.03
2023-01-06T11:52:34.126Z,98999.00
2023-01-06T11:55:10.219Z,99000.88
2023-01-06T11:57:52.939Z,98999.78
2023-01-06T12:00:59.233Z,99005.03
2023-01-06T12:03:41.950Z,98999.50
2023-01-06T12:06:17.085Z,98999.66
2023-01-06T12:09:16.901Z,98995.38
2023-01-06T12:11:55.727Z,98997.28
2023-01-06T12:14:36.006Z,98994.91
2023-01-06T12:17:36.245Z,98995.97
2023-01-06T12:20:13.395Z,98993.59
2023-01-06T12:22:53.517Z,98996.25
2023-01-06T12:25:30.407Z,98989.94
2023-01-06T12:28:32.475Z,98986.63
2023-01-06T12:31:25.369Z,98982.78
2023-01-06T12:34:24.567Z,98986.34
2023-01-06T12:37:32.576Z,98984.09
2023-01-06T12:40:31.472Z,98977.41
2023-01-06T12:43:23.729Z,98981.00
2023-01-06T12:46:13.851Z,98977.13
2023-01-06T12:48:54.931Z,98979.81
2023-01-06T12:51:44.473Z,98983.03
2023-01-06T12:54:53.057Z,98973.06
2023-01-06T12:57:38.771Z,98967.84
2023-01-06T13:00:26.443Z,98965.91
2023-01-06T13:03:44.382Z,98963.94
2023-01-06T13:06:36.700Z,98964.59
2023-01-06T13:09:31.014Z,98969.19
2023-01-06T13:12:18.249Z,98956.63
2023-01-06T13:15:17.933Z,98969.84
2023-01-06T13:18:19.770Z,98964.59
2023-01-06T13:21:11.827Z,98963.94
2023-01-06T13:24:18.164Z,98963.91
2023-01-06T13:27:32.790Z,98967.16
2023-01-06T13:30:26.152Z,98960.47
2023-01-06T13:33:22.370Z,98955.81
2023-01-06T13:36:29.426Z,98947.97
2023-01-06T13:39:20.062Z,98954.56
2023-01-06T13:41:56.037Z,98949.22
2023-01-06T13:44:31.817Z,98956.53
2023-01-06T13:47:18.155Z,98943.97
2023-01-06T13:49:50.825Z,98947.25
2023-01-06T13:52:30.785Z,98946.56
2023-01-06T13:55:21.938Z,98952.47
2023-01-06T13:57:55.003Z,98955.75
2023-01-06T14:00:29.142Z,98969.56
2023-01-06T14:03:13.771Z,98960.31
2023-01-06T14:05:48.890Z,98951.72
2023-01-06T14:08:22.636Z,98960.97
2023-01-06T14:11:30.404Z,98971.56
2023-01-06T14:14:07.017Z,98966.22
2023-01-06T14:16:50.093Z,98971.44
2023-01-06T14:19:30.799Z,98970.19
2023-01-06T14:22:23.409Z,98964.22
2023-01-06T14:25:02.952Z,98963.59
2023-01-06T14:28:01.924Z,98968.91
2023-01-06T14:30:36.650Z,98960.84
2023-01-06T14:33:31.042Z,98964.16
2023-01-06T14:36:17.191Z,98965.59
2023-01-06T14:38:55.544Z,98966.22
2023-01-06T14:41:39.285Z,98963.59
2023-01-06T14:44:27.800Z,98959.00
2023-01-06T14:47:07.139Z,98972.84
2023-01-06T14:49:54.703Z,98970.75
2023-01-06T14:52:34.419Z,98969.47
2023-01-06T14:55:14.494Z,98972.03
2023-01-06T14:57:51.128Z,98981.94
2023-01-06T15:00:31.113Z,98983.22
2023-01-06T15:03:05.994Z,98987.19
2023-01-06T15:05:39.830Z,98983.88
2023-01-06T15:08:12.493Z,98976.53
2023-01-06T15:10:50.427Z,98981.09
2023-01-06T15:13:33.198Z,98985.03
2023-01-06T15:16:29.047Z,98998.91
2023-01-06T15:19:01.650Z,98993.59
2023-01-06T15:21:40.682Z,98999.50
2023-01-06T15:24:25.889Z,99002.06
2023-01-06T15:27:16.046Z,99006.69
2023-01-06T15:29:54.297Z,99000.03
2023-01-06T15:32:28.424Z,99001.41
2023-01-06T15:35:01.274Z,99013.22
2023-01-06T15:37:35.386Z,99009.91
2023-01-06T15:40:08.433Z,99015.91
2023-01-06T15:42:41.537Z,99017.19
2023-01-06T15:45:30.948Z,99019.16
2023-01-06T15:48:17.433Z,99018.47
2023-01-06T15:50:52.105Z,99015.75
2023-01-06T15:53:32.416Z,99016.38
2023-01-06T15:56:06.281Z,99014.41
2023-01-06T15:58:40.344Z,99010.97
2023-01-06T16:01:23.971Z,99009.63
2023-01-06T16:03:59.955Z,99007.69
2023-01-06T16:06:41.217Z,98999.72
2023-01-06T16:09:30.557Z,99002.31
2023-01-06T16:12:20.327Z,98998.91
2023-01-06T16:14:52.311Z,99014.69
2023-01-06T16:17:32.085Z,99006.72
2023-01-06T16:20:08.476Z,99001.44
2023-01-06T16:22:55.455Z,99002.03
2023-01-06T16:25:32.518Z,99005.31
2023-01-06T16:28:06.000Z,99007.94
2023-01-06T16:30:38.767Z,99000.69
2023-01-06T16:33:42.643Z,98998.63
2023-01-06T16:36:18.581Z,99011.84
2023-01-06T16:38:50.478Z,99009.91
2023-01-06T16:41:23.616Z,99005.91
2023-01-06T16:43:56.329Z,99007.22
2023-01-06T16:46:28.282Z,99003.91
2023-01-06T16:49:08.922Z,99005.88
2023-01-06T16:51:44.812Z,99005.88
2023-01-06T16:54:19.118Z,99013.78
2023-01-06T16:56:52.343Z,99004.53
2023-01-06T16:59:26.583Z,99004.59
2023-01-06T17:01:58.840Z,99007.88
2023-01-06T17:04:32.071Z,99007.22
2023-01-06T17:07:11.758Z,99015.81
2023-01-06T17:09:47.597Z,99007.28
2023-01-06T17:12:39.518Z,99008.59
2023-01-06T17:15:13.182Z,99017.22
2023-01-06T17:17:45.093Z,99015.22
2023-01-06T17:20:17.906Z,99011.25
2023-01-06T17:22:52.162Z,99009.81
2023-01-06T17:25:25.854Z,99011.19
2023-01-06T17:27:57.882Z,99007.19
2023-01-06T17:30:30.630Z,99007.19
2023-01-06T17:33:02.814Z,99010.50
2023-01-06T17:35:35.613Z,99005.91
2023-01-06T17:38:25.096Z,99007.91
2023-01-06T17:40:58.538Z,99015.84
2023-01-06T17:43:33.720Z,99011.16
2023-01-06T17:46:30.514Z,99017.19
2023-01-06T17:49:18.192Z,99011.06
2023-01-06T17:51:52.035Z,99012.50
2023-01-06T17:54:44.722Z,99011.81
2023-01-06T17:57:19.437Z,99013.06
2023-01-06T17:59:55.922Z,99007.91
2023-01-06T18:02:43.720Z,99012.53
2023-01-06T18:05:24.588Z,99016.44
2023-01-06T18:08:07.865Z,99013.84
2023-01-06T18:10:57.961Z,99011.91
2023-01-06T18:13:41.820Z,99019.13
2023-01-06T18:16:33.194Z,99004.66
2023-01-06T18:19:25.883Z,99005.88
2023-01-06T18:21:58.638Z,99011.81
2023-01-06T18:24:37.816Z,99011.19
2023-01-06T18:27:35.105Z,99012.56
2023-01-06T18:30:29.373Z,99011.97
2023-01-06T18:33:02.077Z,99009.91
2023-01-06T18:35:34.771Z,99014.44
2023-01-06T18:38:07.616Z,99013.91
2023-01-06T18:40:40.242Z,99018.44
2023-01-06T18:43:30.000Z,99015.84
2023-01-06T18:46:12.505Z,99014.47
2023-01-06T18:48:45.418Z,99013.22
2023-01-06T18:51:23.691Z,99017.09
2023-01-06T18:53:57.321Z,99010.44
2023-01-06T18:56:30.147Z,99008.44
2023-01-06T18:59:02.032Z,99007.63
2023-01-06T19:01:52.933Z,99006.88
2023-01-06T19:04:30.441Z,99008.22
2023-01-06T19:07:16.161Z,99017.53
2023-01-06T19:09:50.360Z,99008.34
2023-01-06T19:12:33.636Z,99009.63
2023-01-06T19:15:26.784Z,99006.97
2023-01-06T19:18:01.398Z,99006.22
2023-01-06T19:20:38.273Z,99000.81
2023-01-06T19:23:23.624Z,98997.50
2023-01-06T19:26:05.998Z,99001.38
2023-01-06T19:31:32.674Z,99002.53
2023-01-06T19:34:06.245Z,99002.19
2023-01-06T19:36:50.025Z,99005.22
2023-01-06T19:39:30.709Z,99006.34
2023-01-06T19:42:27.167Z,99005.47
2023-01-06T19:45:09.718Z,99003.31
2023-01-06T19:47:42.272Z,98993.22
2023-01-06T19:50:23.865Z,98998.56
2023-01-06T19:52:59.543Z,99003.59
2023-01-06T19:55:33.240Z,98997.13
2023-01-06T19:58:18.339Z,98996.25
2023-01-06T20:00:52.502Z,98996.84
2023-01-06T20:03:38.240Z,98986.97
2023-01-06T20:06:10.220Z,98996.78
2023-01-06T20:08:44.135Z,98991.97
2023-01-06T20:11:16.454Z,98989.50
2023-01-06T20:13:49.546Z,98982.81
2023-01-06T20:16:21.588Z,98985.44
2023-01-06T20:18:54.569Z,98980.72
2023-01-06T20:21:26.501Z,98976.75
2023-01-06T20:24:01.026Z,98978.13
2023-01-06T20:26:34.915Z,98977.41
2023-01-06T20:29:06.798Z,98979.28
2023-01-06T20:31:39.603Z,98975.97
2023-01-06T20:34:11.540Z,98972.22
2023-01-06T20:36:44.315Z,98974.06
2023-01-06T20:39:16.788Z,98983.91
2023-01-06T20:41:49.290Z,98990.22
2023-01-06T20:44:22.368Z,98988.81
2023-01-06T20:46:54.740Z,98975.88
2023-01-06T20:49:26.612Z,98973.09
2023-01-06T20:52:00.594Z,98982.84
2023-01-06T20:54:33.320Z,98979.66
2023-01-06T20:57:06.584Z,98983.66
2023-01-06T20:59:38.909Z,98982.38
2023-01-06T21:02:10.935Z,98973.84
2023-01-06T21:05:06.625Z,98975.13
2023-01-06T21:07:41.165Z,98986.91
2023-01-06T21:10:13.770Z,98981.00
2023-01-06T21:12:49.627Z,98979.19
2023-01-06T21:15:21.505Z,98985.06
2023-01-06T21:17:54.236Z,98985.13
2023-01-06T21:20:26.121Z,98980.66
2023-01-06T21:22:58.883Z,98987.66
2023-01-06T21:25:31.042Z,98973.13
2023-01-06T21:28:03.990Z,98980.44
2023-01-06T21:30:35.993Z,98976.47
2023-01-06T21:33:08.759Z,98972.63
2023-01-06T21:35:40.711Z,98967.16
2023-01-06T21:38:13.508Z,98963.91
2023-01-06T21:40:46.405Z,98969.81
2023-01-06T21:43:19.309Z,98958.56
2023-01-06T21:45:52.522Z,98962.44
2023-01-06T21:48:25.795Z,98959.75
2023-01-06T21:50:58.551Z,98969.63
2023-01-06T21:53:32.063Z,98961.63
2023-01-06T21:56:04.584Z,98970.19
2023-01-06T21:58:38.845Z,98964.22
2023-01-06T22:01:11.694Z,98962.97
2023-01-06T22:03:43.909Z,98962.28
2023-01-06T22:06:18.818Z,98951.28
2023-01-06T22:08:53.366Z,98958.41
2023-01-06T22:11:27.654Z,98953.91
2023-01-06T22:14:01.062Z,98952.47
2023-01-06T22:16:34.163Z,98949.19
2023-01-06T22:19:06.910Z,98950.47
2023-01-06T22:21:42.363Z,98949.31
2023-01-06T22:24:17.324Z,98950.53
2023-01-06T22:26:49.241Z,98953.84
2023-01-06T22:29:22.001Z,98948.69
2023-01-06T22:31:54.713Z,98942.81
2023-01-06T22:34:26.689Z,98940.19
2023-01-06T22:36:59.433Z,98937.41
2023-01-06T22:39:32.375Z,98940.44
2023-01-06T22:42:05.244Z,98934.53
2023-01-06T22:44:37.553Z,98931.97
2023-01-06T22:47:10.678Z,98935.31
2023-01-06T22:49:44.750Z,98937.28
2023-01-06T22:52:20.614Z,98922.81
2023-01-06T22:54:53.908Z,98931.25
2023-01-06T22:57:25.784Z,98922.66
2023-01-06T23:00:00.515Z,98919.53
2023-01-06T23:02:57.630Z,98923.59
2023-01-06T23:05:30.636Z,98922.97
2023-01-06T23:08:03.367Z,98918.38
2023-01-06T23:10:37.264Z,98919.78
2023-01-06T23:13:09.317Z,98910.50
2023-01-06T23:18:39.772Z,98910.41
2023-01-06T23:21:21.477Z,98913.06
2023-01-06T23:23:54.128Z,98909.81
2023-01-06T23:26:35.018Z,98913.59
2023-01-06T23:29:08.801Z,98913.53
2023-01-06T23:31:46.691Z,98907.63
2023-01-06T23:34:19.209Z,98904.41
2023-01-06T23:36:52.663Z,98900.22
2023-01-06T23:39:25.316Z,98900.94
2023-01-06T23:41:58.016Z,98893.78
2023-01-06T23:44:30.336Z,98894.41
2023-01-06T23:47:02.691Z,98893.84
2023-01-06T23:49:35.009Z,98893.88
2023-01-06T23:52:06.910Z,98888.63
2023-01-06T23:54:39.706Z,98878.72
2023-01-06T23:57:12.836Z,98885.34
2023-01-06T23:59:45.288Z,98880.03
